Time;durP1;ratioP1;P1;durP2;ratioP2;P2;SDS_P1;SDS_P2;PMS_P1;PMS_P2;Temp;Humidity;BMP_temperature;BMP_pressure;BME280_temperature;BME280_humidity;BME280_pressure;Samples;Min_cycle;Max_cycle;Signal;HPM_P1;HPM_P2
2022/05/07 00:01:33;;;;;;;6.27;3.87;;;15.40;76.50;;;15.95;49.53;99264.94;4968749;28;113361;-94
2022/05/07 00:03:59;;;;;;;3.90;3.40;;;15.40;76.60;;;15.93;49.49;99264.44;4969887;28;123945;-95
2022/05/07 00:06:27;;;;;;;3.93;3.53;;;15.40;76.80;;;15.89;49.56;99253.97;4969066;28;123956;-94
2022/05/07 00:08:54;;;;;;;4.03;3.63;;;15.30;76.70;;;15.86;49.40;99259.41;4969744;28;114409;-94
2022/05/07 00:11:21;;;;;;;5.83;3.70;;;15.30;76.90;;;15.84;49.99;99258.94;4972310;28;113232;-93
2022/05/07 00:13:51;;;;;;;4.20;3.77;;;15.30;76.90;;;15.81;50.00;99260.41;4973347;28;124500;-95
2022/05/07 00:19:25;;;;;;;3.83;3.50;;;15.20;77.10;;;15.72;49.99;99248.53;4976389;28;114887;-95
2022/05/07 00:21:51;;;;;;;5.60;4.03;;;15.20;77.30;;;15.67;50.28;99249.50;4974165;28;114329;-94
2022/05/07 00:25:14;;;;;;;4.33;3.37;;;15.20;77.40;;;15.62;50.05;99244.09;4992511;28;123669;-95
2022/05/07 00:27:43;;;;;;;4.30;3.90;;;15.10;77.40;;;15.58;50.21;99248.72;4973812;28;123062;-94
2022/05/07 00:30:29;;;;;;;4.07;3.67;;;15.00;77.50;;;15.57;50.33;99246.25;4966253;28;113598;-95
2022/05/07 00:32:56;;;;;;;3.80;3.40;;;15.00;77.60;;;15.53;50.42;99239.72;4956552;28;113982;-94
2022/05/07 00:35:24;;;;;;;4.10;3.60;;;15.00;77.70;;;15.50;50.44;99244.00;4960354;28;124168;-96
2022/05/07 00:37:52;;;;;;;4.53;3.70;;;15.00;77.90;;;15.46;50.57;99238.28;5006303;28;123767;-95
2022/05/07 00:40:19;;;;;;;3.43;3.13;;;14.90;77.80;;;15.46;50.52;99246.63;4972790;28;115325;-95
2022/05/07 00:42:45;;;;;;;4.57;3.63;;;14.90;77.90;;;15.43;50.62;99236.16;4978490;28;114165;-94
2022/05/07 00:45:12;;;;;;;4.77;3.70;;;14.90;78.00;;;15.43;50.56;99246.50;4973022;28;123227;-95
2022/05/07 00:48:17;;;;;;;3.83;3.23;;;14.90;78.10;;;15.39;50.81;99246.34;4973520;28;125956;-94
2022/05/07 00:53:33;;;;;;;3.93;3.53;;;14.80;78.40;;;15.32;50.96;99250.78;4979172;28;114417;-95
2022/05/07 00:56:02;;;;;;;5.60;3.50;;;14.80;78.50;;;15.30;50.88;99242.75;4975261;28;124311;-95
2022/05/07 00:58:51;;;;;;;4.63;3.47;;;14.70;78.60;;;15.26;50.84;99230.69;4975282;28;123136;-94
2022/05/07 01:01:18;;;;;;;3.97;3.57;;;14.70;78.60;;;15.22;51.05;99238.84;4974271;28;114042;-96
2022/05/07 01:03:46;;;;;;;4.33;3.67;;;14.70;78.70;;;15.21;51.17;99245.59;4975023;28;114364;-94
2022/05/07 01:06:13;;;;;;;5.53;3.40;;;14.60;78.80;;;15.19;50.98;99242.31;4969981;28;124146;-94
2022/05/07 01:08:43;;;;;;;3.50;3.20;;;14.70;78.90;;;15.16;51.18;99234.63;4972827;28;123731;-95
2022/05/07 01:11:10;;;;;;;4.27;3.40;;;14.60;78.90;;;15.16;51.03;99233.81;4994371;28;113865;-93
2022/05/07 01:13:39;;;;;;;5.00;3.80;;;14.60;79.00;;;15.13;51.31;99243.66;4975229;28;113088;-95
2022/05/07 01:16:06;;;;;;;4.37;3.30;;;14.60;79.10;;;15.12;51.23;99239.22;4970310;28;123245;-94
2022/05/07 01:18:33;;;;;;;4.03;3.60;;;14.50;79.00;;;15.09;51.34;99237.09;4984936;28;122915;-93
2022/05/07 01:21:07;;;;;;;4.23;3.50;;;14.50;79.30;;;15.08;51.25;99237.44;4970134;28;114231;-96
2022/05/07 01:23:34;;;;;;;4.67;3.60;;;14.50;79.20;;;15.01;51.22;99235.16;4983718;28;114213;-94
2022/05/07 01:26:00;;;;;;;5.00;3.93;;;14.50;79.30;;;14.93;51.31;99234.03;4963192;28;123482;-95
2022/05/07 01:29:04;;;;;;;6.90;3.63;;;14.40;79.20;;;14.86;51.54;99233.72;4971469;28;122803;-94
2022/05/07 01:31:30;;;;;;;4.53;4.07;;;14.40;79.30;;;14.83;51.40;99234.41;4973037;28;114469;-93
2022/05/07 01:33:57;;;;;;;3.60;2.80;;;14.30;79.50;;;14.81;51.62;99231.13;4970189;28;115723;-94
2022/05/07 01:36:24;;;;;;;4.47;4.07;;;14.30;79.60;;;14.81;51.75;99225.56;4969386;28;124075;-93
2022/05/07 01:38:51;;;;;;;3.50;3.20;;;14.20;79.70;;;14.79;51.65;99225.88;4980265;28;123821;-93
2022/05/07 01:41:18;;;;;;;5.10;3.70;;;14.20;79.60;;;14.77;51.77;99225.38;4991907;28;112912;-94
2022/05/07 01:43:45;;;;;;;3.13;2.80;;;14.20;79.60;;;14.76;51.63;99222.94;4977506;28;114894;-93
2022/05/07 01:49:17;;;;;;;5.37;3.17;;;14.20;80.40;;;14.68;51.65;99230.16;4992221;28;123712;-92
2022/05/07 01:51:43;;;;;;;3.47;2.80;;;14.10;79.70;;;14.64;51.80;99218.06;4983803;28;114860;-94
2022/05/07 01:54:10;;;;;;;4.73;3.30;;;14.10;79.80;;;14.64;51.71;99225.56;4979657;28;113697;-94
2022/05/07 01:56:37;;;;;;;4.90;3.20;;;14.10;79.70;;;14.61;51.93;99223.44;4993303;28;122287;-94
2022/05/07 01:59:03;;;;;;;3.40;3.10;;;14.10;79.90;;;14.58;51.87;99228.50;4968215;28;123760;-95
2022/05/07 02:01:30;;;;;;;3.33;2.97;;;14.10;80.00;;;14.56;51.85;99232.75;4969336;28;114300;-95
2022/05/07 02:03:56;;;;;;;2.97;2.67;;;14.00;79.90;;;14.55;51.82;99236.69;4970170;28;114115;-96
2022/05/07 02:06:24;;;;;;;3.57;3.00;;;14.00;80.00;;;14.54;51.86;99238.66;4970968;28;123285;-95
2022/05/07 02:08:50;;;;;;;5.33;3.30;;;14.00;80.10;;;14.51;52.02;99233.75;4983699;28;122881;-95
2022/05/07 02:11:17;;;;;;;3.50;2.90;;;14.00;80.30;;;14.51;52.09;99233.75;4967890;28;114290;-95
2022/05/07 02:13:43;;;;;;;4.10;3.10;;;13.90;80.20;;;14.50;52.14;99234.88;4979362;28;114017;-95
2022/05/07 02:16:10;;;;;;;4.70;3.20;;;13.90;80.30;;;14.48;52.12;99228.84;4976688;28;123499;-96
2022/05/07 02:18:38;;;;;;;4.30;3.47;;;13.90;80.40;;;14.47;52.12;99237.50;4977572;28;122978;-96
2022/05/07 02:21:06;;;;;;;3.57;3.27;;;13.90;80.50;;;14.45;52.17;99231.44;4976111;28;114984;-95
2022/05/07 02:23:32;;;;;;;3.37;3.07;;;13.90;80.60;;;14.44;52.13;99238.97;4975561;28;114939;-94
2022/05/07 02:26:01;;;;;;;3.60;2.97;;;13.80;80.50;;;14.42;52.17;99232.91;4969753;28;124253;-95
2022/05/07 02:28:47;;;;;;;4.63;2.67;;;13.80;80.60;;;14.41;52.23;99233.25;4976020;28;123184;-95
2022/05/07 02:31:14;;;;;;;3.43;3.13;;;13.80;80.60;;;14.39;52.33;99236.34;4958193;28;113635;-94
2022/05/07 02:33:41;;;;;;;3.27;2.90;;;13.80;80.70;;;14.39;52.43;99235.53;4978209;28;114200;-95
2022/05/07 02:36:07;;;;;;;4.10;3.30;;;13.80;80.90;;;14.36;52.25;99226.69;4992466;28;122744;-95
2022/05/07 02:38:38;;;;;;;3.50;2.90;;;13.80;80.90;;;14.35;52.38;99232.59;4975769;28;123126;-95
2022/05/07 02:43:51;;;;;;;3.50;3.20;;;13.70;81.60;;;14.30;52.63;99232.75;4973296;28;113776;-95
2022/05/07 02:46:18;;;;;;;3.80;3.17;;;13.70;81.10;;;14.29;52.60;99233.88;4972687;28;123809;-94
2022/05/07 02:48:45;;;;;;;4.27;3.23;;;13.70;81.20;;;14.25;52.67;99242.06;4963366;28;121664;-95
2022/05/07 02:51:13;;;;;;;3.53;3.23;;;13.70;81.30;;;14.23;52.64;99233.22;4988190;28;112856;-95
2022/05/07 02:53:40;;;;;;;3.70;3.30;;;13.70;81.40;;;14.20;52.70;99239.44;4958039;28;114226;-95
2022/05/07 02:56:07;;;;;;;4.23;3.83;;;13.70;81.50;;;14.18;52.95;99232.56;4975688;28;121994;-95
2022/05/07 02:58:34;;;;;;;3.77;3.40;;;13.60;81.50;;;14.13;53.02;99241.88;4976208;28;123706;-94
2022/05/07 03:01:03;;;;;;;4.00;3.30;;;13.60;81.60;;;14.11;52.91;99231.09;4976842;28;112435;-95
2022/05/07 03:03:29;;;;;;;4.53;3.37;;;13.50;81.60;;;14.09;52.94;99232.56;4973278;28;113274;-96
2022/05/07 03:06:15;;;;;;;3.80;3.37;;;13.50;81.70;;;14.07;53.01;99240.41;4972020;28;124227;-95
2022/05/07 03:08:43;;;;;;;3.40;3.10;;;13.50;81.80;;;14.03;53.18;99237.47;4972827;28;124230;-95
2022/05/07 03:11:11;;;;;;;4.33;3.37;;;13.50;81.90;;;14.00;53.27;99234.53;4972840;28;114635;-94
2022/05/07 03:13:38;;;;;;;3.00;2.70;;;13.40;81.80;;;13.98;53.24;99232.06;4986965;28;113822;-95
2022/05/07 03:16:04;;;;;;;3.53;3.23;;;13.40;82.00;;;13.97;53.39;99240.72;4966602;28;123369;-94
2022/05/07 03:18:31;;;;;;;4.20;3.30;;;13.40;82.10;;;13.96;53.49;99239.91;4974914;28;123454;-95
2022/05/07 03:20:58;;;;;;;4.50;3.47;;;13.40;82.20;;;13.96;53.45;99233.53;5005311;28;113496;-95
2022/05/07 03:23:25;;;;;;;5.07;3.47;;;13.40;82.30;;;13.94;53.44;99239.41;4970527;28;113159;-95
2022/05/07 03:25:55;;;;;;;3.80;3.13;;;13.40;82.40;;;13.92;53.26;99241.72;4972662;28;124077;-95
2022/05/07 03:28:23;;;;;;;3.20;2.90;;;13.40;82.50;;;13.90;53.29;99236.47;4972981;28;122967;-95
2022/05/07 03:30:50;;;;;;;5.90;3.30;;;13.30;82.40;;;13.89;53.36;99234.84;4975379;28;112856;-94
2022/05/07 03:33:17;;;;;;;2.97;2.63;;;13.30;82.40;;;13.88;53.39;99233.19;4987998;28;113272;-94
2022/05/07 03:43:09;;;;;;;4.27;3.07;;;13.20;82.50;;;13.75;53.47;99234.13;4977798;28;115280;-94
2022/05/07 03:45:35;;;;;;;3.43;2.90;;;13.20;82.60;;;13.74;53.73;99235.28;4973475;28;113448;-95
2022/05/07 03:48:59;;;;;;;5.30;3.33;;;13.20;82.60;;;13.72;53.45;99226.44;4972565;28;123380;-93
2022/05/07 03:51:26;;;;;;;3.03;2.73;;;13.20;82.60;;;13.69;53.51;99219.59;4963478;28;122578;-94
2022/05/07 03:53:52;;;;;;;3.27;2.97;;;13.10;82.50;;;13.69;53.55;99235.44;4975687;28;113882;-94
2022/05/07 03:56:20;;;;;;;3.77;3.40;;;13.10;82.60;;;13.68;53.60;99228.25;4972175;28;113086;-93
2022/05/07 03:58:47;;;;;;;3.97;3.13;;;13.10;82.60;;;13.67;53.58;99237.72;4972002;28;123305;-95
2022/05/07 04:01:15;;;;;;;3.40;2.60;;;13.10;82.70;;;13.65;53.78;99232.50;4971936;28;122684;-95
2022/05/07 04:03:41;;;;;;;3.13;2.80;;;13.10;82.70;;;13.63;53.73;99239.50;4989335;28;114617;-93
2022/05/07 04:06:08;;;;;;;3.47;3.17;;;13.10;82.70;;;13.60;53.65;99240.97;4969567;28;114656;-94
2022/05/07 04:08:34;;;;;;;2.80;2.47;;;13.10;82.70;;;13.57;53.59;99238.84;4984797;28;123318;-93
2022/05/07 04:11:02;;;;;;;2.93;2.70;;;13.00;82.70;;;13.57;53.81;99238.84;4971687;28;123154;-94
2022/05/07 04:13:35;;;;;;;3.60;2.90;;;13.00;82.80;;;13.57;54.02;99241.63;4970865;28;113354;-93
2022/05/07 04:16:04;;;;;;;3.37;3.07;;;13.00;82.90;;;13.57;53.79;99238.03;4972402;28;113304;-95
2022/05/07 04:18:31;;;;;;;3.10;2.63;;;13.00;82.90;;;13.56;53.62;99248.28;4985010;28;124193;-94
2022/05/07 04:24:41;;;;;;;3.50;3.00;;;13.00;83.10;;;13.57;53.68;99243.59;4959882;28;115375;-94
2022/05/07 04:27:09;;;;;;;3.00;2.60;;;12.90;83.10;;;13.64;53.87;99243.91;4972500;28;113455;-94
2022/05/07 04:29:37;;;;;;;2.93;2.60;;;13.00;83.40;;;13.69;53.57;99241.81;4989374;28;121995;-95
2022/05/07 04:32:04;;;;;;;4.00;3.00;;;13.00;83.30;;;13.72;53.67;99240.34;4969763;28;124032;-93
2022/05/07 04:34:31;;;;;;;4.33;2.93;;;13.10;83.30;;;13.72;53.50;99242.31;4973487;28;113937;-95
2022/05/07 04:36:57;;;;;;;3.67;3.00;;;13.10;83.20;;;13.70;53.68;99251.78;4972664;28;113265;-93
2022/05/07 04:39:24;;;;;;;4.40;3.20;;;13.10;83.10;;;13.69;53.64;99250.13;4972357;28;122580;-94
2022/05/07 04:41:51;;;;;;;3.40;3.10;;;13.10;83.10;;;13.69;53.51;99247.34;4972967;28;124119;-94
2022/05/07 04:44:19;;;;;;;3.57;3.10;;;13.10;83.10;;;13.69;53.42;99250.13;5003774;28;114316;-95
2022/05/07 04:46:46;;;;;;;4.80;3.20;;;13.10;83.20;;;13.72;53.79;99250.63;4970780;28;113043;-94
2022/05/07 04:49:14;;;;;;;4.93;2.77;;;13.10;83.30;;;13.73;53.79;99252.25;4969256;28;124628;-94
2022/05/07 04:51:40;;;;;;;3.50;3.20;;;13.10;83.20;;;13.73;53.70;99252.25;4971521;28;123031;-93
2022/05/07 04:54:08;;;;;;;3.40;3.10;;;13.10;83.30;;;13.76;53.50;99262.75;4970245;28;114631;-94
2022/05/07 04:56:35;;;;;;;3.57;3.10;;;13.10;83.30;;;13.78;53.53;99257.66;4973517;28;114504;-94
2022/05/07 04:59:02;;;;;;;8.70;3.00;;;13.10;83.30;;;13.81;53.55;99268.13;4970431;28;123873;-94
2022/05/07 05:01:28;;;;;;;4.50;3.50;;;13.20;83.30;;;13.79;53.48;99262.09;4971284;28;121771;-94
2022/05/07 05:03:55;;;;;;;4.30;3.47;;;13.20;83.30;;;13.75;53.53;99252.75;4985294;28;113493;-94
2022/05/07 05:06:22;;;;;;;4.10;3.60;;;13.10;83.00;;;13.73;53.44;99261.44;4966135;28;114105;-94
2022/05/07 05:08:49;;;;;;;3.47;3.17;;;13.10;83.00;;;13.76;53.63;99265.53;4970319;28;123218;-94
2022/05/07 05:11:15;;;;;;;3.80;3.50;;;13.10;83.10;;;13.76;53.23;99265.53;4988446;28;123917;-94
2022/05/07 05:13:43;;;;;;;3.20;2.90;;;13.10;83.00;;;13.79;53.25;99264.88;4985679;28;113865;-93
2022/05/07 05:16:12;;;;;;;3.67;2.57;;;13.20;83.10;;;13.81;53.31;99268.97;4967060;28;113990;-93
2022/05/07 05:18:41;;;;;;;4.50;3.33;;;13.20;83.10;;;13.83;53.14;99271.41;4973119;28;122535;-94
2022/05/07 05:21:07;;;;;;;3.23;2.87;;;13.20;83.00;;;13.87;53.13;99269.63;4969556;28;123287;-94
2022/05/07 05:23:35;;;;;;;3.43;3.13;;;13.20;83.00;;;13.90;53.11;99280.09;4987988;28;113291;-94
2022/05/07 05:26:01;;;;;;;3.90;3.50;;;13.30;83.00;;;13.89;53.08;99273.72;4970320;28;113876;-94
2022/05/07 05:28:30;;;;;;;4.90;3.87;;;13.30;82.90;;;13.91;53.05;99267.84;4969581;28;124096;-94
2022/05/07 05:30:56;;;;;;;6.17;4.17;;;13.30;82.90;;;13.89;53.17;99272.91;4987239;28;123063;-95
2022/05/07 05:33:23;;;;;;;3.80;3.20;;;13.30;83.00;;;13.88;53.38;99280.41;4971948;28;113958;-95
2022/05/07 05:35:51;;;;;;;4.67;3.63;;;13.30;83.00;;;13.91;53.69;99276.16;4972501;28;113226;-95
2022/05/07 05:38:18;;;;;;;3.80;3.40;;;13.30;83.10;;;13.98;53.30;99273.75;4969559;28;123534;-94
2022/05/07 05:40:44;;;;;;;4.07;3.53;;;13.30;83.10;;;14.01;53.22;99278.66;4969241;28;124534;-93
2022/05/07 05:43:11;;;;;;;3.53;3.23;;;13.40;83.20;;;14.07;53.30;99279.31;4980280;28;114686;-94
2022/05/07 05:45:38;;;;;;;4.30;3.47;;;13.40;83.20;;;14.12;53.15;99277.19;4972998;28;114955;-94
2022/05/07 05:48:05;;;;;;;4.27;3.87;;;13.50;83.30;;;14.18;53.07;99277.03;4972861;28;124031;-96
2022/05/07 05:50:32;;;;;;;8.50;4.20;;;13.50;83.30;;;14.22;53.07;99281.63;4963693;28;124366;-94
2022/05/07 05:52:59;;;;;;;4.63;4.10;;;13.60;83.40;;;14.24;53.19;99289.63;4995167;28;113514;-95
2022/05/07 05:55:25;;;;;;;6.93;3.93;;;13.60;83.40;;;14.25;53.15;99285.72;4972764;28;114031;-94
2022/05/07 05:57:53;;;;;;;5.90;4.47;;;13.60;83.40;;;14.27;53.25;99289.00;4972888;28;124254;-94
2022/05/07 06:00:38;;;;;;;5.03;4.53;;;13.60;83.40;;;14.28;53.27;99285.06;4989516;28;122489;-95
2022/05/07 06:03:05;;;;;;;6.27;5.47;;;13.70;83.50;;;14.29;53.29;99292.25;4992982;28;114112;-94
2022/05/07 06:05:32;;;;;;;5.00;4.50;;;13.70;83.70;;;14.32;53.49;99297.19;4992484;28;113750;-94
2022/05/07 06:08:00;;;;;;;6.47;5.13;;;13.70;83.70;;;14.33;53.54;99290.47;4992069;28;123972;-94
2022/05/07 06:10:27;;;;;;;9.30;5.50;;;13.70;83.90;;;14.39;53.54;99288.34;4977737;28;122914;-95
2022/05/07 06:12:53;;;;;;;7.93;5.33;;;13.70;84.00;;;14.43;53.66;99292.13;4987495;28;113308;-93
2022/05/07 06:15:20;;;;;;;7.60;5.67;;;13.80;84.10;;;14.47;53.25;99288.34;4964429;28;113144;-93
2022/05/07 06:17:47;;;;;;;5.67;5.10;;;13.80;84.20;;;14.54;53.72;99290.69;4973172;28;123309;-94
2022/05/07 06:20:14;;;;;;;7.43;5.40;;;13.90;84.40;;;14.62;53.64;99292.66;4972073;28;121932;-94
2022/05/07 06:22:41;;;;;;;8.07;6.70;;;13.90;84.40;;;14.69;53.63;99300.50;4973977;28;113222;-93
2022/05/07 06:27:55;;;;;;;9.03;6.70;;;14.10;84.70;;;14.77;53.85;99288.53;4958762;28;124223;-93
2022/05/07 06:30:23;;;;;;;8.00;6.50;;;14.10;84.80;;;14.81;53.93;99295.09;4971643;28;123808;-95
2022/05/07 06:32:50;;;;;;;7.63;6.17;;;14.20;85.00;;;14.87;53.89;99291.00;4970705;28;115278;-94
2022/05/07 06:35:16;;;;;;;8.73;7.47;;;14.20;85.00;;;14.93;53.86;99294.41;4971176;28;114042;-94
2022/05/07 06:37:48;;;;;;;9.10;6.40;;;14.30;85.10;;;14.98;53.84;99300.63;4970066;28;123202;-94
2022/05/07 06:40:15;;;;;;;6.67;6.00;;;14.30;85.10;;;15.08;53.76;99295.88;4970118;28;123358;-94
2022/05/07 06:42:43;;;;;;;7.37;5.90;;;14.40;85.20;;;15.17;54.04;99288.31;5003782;28;115184;-95
2022/05/07 06:45:11;;;;;;;6.60;5.90;;;14.50;85.30;;;15.24;53.77;99294.22;4972291;28;113091;-96
2022/05/07 06:47:38;;;;;;;7.20;5.80;;;14.50;85.10;;;15.33;53.92;99291.41;4986150;28;124428;-94
2022/05/07 06:50:07;;;;;;;7.40;6.20;;;14.60;85.30;;;15.42;53.62;99295.78;4970935;28;123846;-96
2022/05/07 06:52:44;;;;;;;6.40;5.70;;;14.70;85.20;;;15.49;53.41;99294.47;4986728;28;114603;-94
2022/05/07 06:55:15;;;;;;;6.63;5.93;;;14.80;85.20;;;15.53;53.33;99295.41;4968783;28;113858;-94
2022/05/07 06:57:44;;;;;;;9.50;6.93;;;14.80;85.00;;;15.59;53.32;99294.09;4958427;28;124720;-95
2022/05/07 07:00:14;;;;;;;6.20;5.60;;;14.90;84.90;;;15.66;52.99;99291.59;4952392;28;122855;-94
2022/05/07 07:02:41;;;;;;;9.07;6.77;;;15.00;84.80;;;15.76;52.80;99287.66;4960880;28;113800;-95
2022/05/07 07:05:09;;;;;;;7.23;6.20;;;15.10;84.70;;;15.82;53.01;99287.13;4990415;28;113836;-95
2022/05/07 07:07:35;;;;;;;7.10;6.37;;;15.10;84.50;;;15.92;52.84;99290.69;4955101;28;123699;-93
2022/05/07 07:10:02;;;;;;;7.20;6.33;;;15.20;84.60;;;16.04;52.61;99293.56;4957961;28;123727;-95
2022/05/07 07:12:29;;;;;;;8.70;7.30;;;15.30;84.60;;;16.13;52.54;99292.38;4964118;28;114386;-94
2022/05/07 07:14:56;;;;;;;9.53;6.00;;;15.40;84.40;;;16.20;52.20;99291.84;4958808;28;113947;-94
2022/05/07 07:17:25;;;;;;;8.77;6.43;;;15.50;84.20;;;16.27;52.30;99283.75;4972266;28;123160;-94
2022/05/07 07:19:52;;;;;;;7.50;5.80;;;15.60;83.90;;;16.37;51.83;99284.53;4969659;28;123013;-95
2022/05/07 07:22:18;;;;;;;6.03;5.23;;;15.60;83.70;;;16.47;51.79;99286.88;4971418;28;115596;-94
2022/05/07 07:24:45;;;;;;;6.50;5.30;;;15.70;83.60;;;16.57;51.19;99289.25;4970347;28;115024;-96
2022/05/07 07:27:11;;;;;;;6.10;5.00;;;15.80;83.30;;;16.66;51.16;99287.25;4961433;28;124845;-96
2022/05/07 07:29:38;;;;;;;6.40;4.90;;;15.90;83.00;;;16.76;50.79;99288.78;4955223;28;123913;-91
2022/05/07 07:32:05;;;;;;;5.57;4.73;;;16.00;82.60;;;16.85;50.07;99291.53;4957297;28;114532;-93
2022/05/07 07:34:31;;;;;;;6.60;4.60;;;16.10;82.20;;;16.90;50.45;99280.97;4960979;28;113649;-93
2022/05/07 07:36:58;;;;;;;6.10;4.50;;;16.20;82.10;;;17.00;50.42;99276.94;4970416;28;124181;-92
2022/05/07 07:39:24;;;;;;;6.60;4.80;;;16.30;82.10;;;17.11;50.10;99277.31;4970732;28;123466;-93
2022/05/07 07:41:51;;;;;;;7.70;5.20;;;16.40;81.70;;;17.21;49.94;99272.09;4981302;28;114572;-93
2022/05/07 07:44:17;;;;;;;5.90;5.23;;;16.40;81.80;;;17.33;49.66;99274.13;4983738;28;113767;-93
2022/05/07 07:49:29;;;;;;;10.20;6.23;;;16.60;81.20;;;17.47;48.99;99271.00;4972426;28;124409;-94
2022/05/07 07:51:56;;;;;;;6.60;4.97;;;16.70;80.50;;;17.48;48.91;99275.44;4971885;28;114489;-93
2022/05/07 07:54:22;;;;;;;7.50;5.00;;;17.20;80.80;;;17.55;48.72;99270.09;4970057;28;113204;-94
2022/05/07 07:56:49;;;;;;;6.57;5.73;;;16.90;80.30;;;17.61;48.43;99273.47;4965638;28;123389;-93
2022/05/07 07:59:15;;;;;;;8.67;5.93;;;16.90;79.80;;;17.68;48.25;99265.34;4967390;28;123906;-93
2022/05/07 08:01:42;;;;;;;7.53;5.87;;;17.00;79.60;;;17.72;48.27;99271.03;4963489;28;114668;-93
2022/05/07 08:04:09;;;;;;;7.03;5.73;;;17.00;79.40;;;17.77;48.17;99281.97;4965935;28;113871;-93
2022/05/07 08:06:36;;;;;;;6.60;5.20;;;17.10;79.40;;;17.85;48.21;99281.09;4967811;28;124128;-93
2022/05/07 08:11:47;;;;;;;5.00;4.50;;;17.20;79.30;;;18.03;47.99;99276.88;4959100;28;115759;-93
2022/05/07 08:14:14;;;;;;;5.70;4.83;;;17.30;79.30;;;18.14;47.89;99273.63;4949934;28;114893;-92
2022/05/07 08:16:42;;;;;;;6.43;5.83;;;17.40;79.20;;;18.19;47.28;99279.78;4955207;28;124052;-95
2022/05/07 08:19:11;;;;;;;11.10;6.70;;;17.50;78.60;;;18.22;47.27;99279.06;4985036;28;122724;-94
2022/05/07 08:21:38;;;;;;;7.63;6.47;;;17.50;78.30;;;18.26;46.94;99281.97;4954845;28;114354;-94
2022/05/07 08:24:05;;;;;;;7.87;6.20;;;17.60;78.30;;;18.30;47.14;99272.53;4956292;28;114110;-94
2022/05/07 08:26:33;;;;;;;7.90;6.23;;;17.60;78.00;;;18.31;46.89;99260.16;4962225;28;123788;-93
2022/05/07 08:29:00;;;;;;;8.33;6.40;;;17.70;77.80;;;18.36;47.06;99261.91;4958607;28;123234;-95
2022/05/07 08:31:26;;;;;;;7.43;5.53;;;17.70;77.80;;;18.43;47.01;99262.13;4961579;28;114322;-92
2022/05/07 08:33:55;;;;;;;6.83;6.10;;;17.80;77.80;;;18.52;46.88;99265.59;4952873;28;114373;-95
2022/05/07 08:36:22;;;;;;;5.80;5.20;;;17.90;77.80;;;18.61;46.83;99264.63;4959288;28;124433;-92
2022/05/07 08:38:48;;;;;;;7.93;6.30;;;17.90;77.60;;;18.70;46.89;99265.31;4955098;28;122990;-93
2022/05/07 08:41:15;;;;;;;7.43;6.17;;;18.00;77.60;;;18.73;46.54;99265.41;4956942;28;112043;-94
2022/05/07 08:43:43;;;;;;;9.07;7.03;;;18.10;77.30;;;18.75;46.51;99265.09;4954589;28;114022;-94
2022/05/07 08:46:19;;;;;;;9.67;5.90;;;18.10;77.00;;;18.82;46.42;99256.09;4949444;28;124062;-94
2022/05/07 08:48:47;;;;;;;12.63;6.93;;;18.20;77.20;;;18.91;46.52;99251.13;4969563;28;123554;-93
2022/05/07 08:51:20;;;;;;;7.47;6.30;;;18.30;77.40;;;18.98;46.37;99260.56;4963307;28;113628;-92
2022/05/07 08:53:49;;;;;;;6.90;5.90;;;18.30;77.40;;;19.06;46.51;99260.75;4964310;28;114059;-94
2022/05/07 08:56:17;;;;;;;6.17;5.47;;;18.40;77.40;;;19.11;46.47;99257.69;4956072;28;124222;-92
2022/05/07 08:58:52;;;;;;;7.30;5.83;;;18.40;77.30;;;19.17;46.33;99262.66;4958307;28;123278;-92
2022/05/07 09:01:19;;;;;;;8.67;6.43;;;18.50;77.20;;;19.24;46.31;99256.47;4952690;28;114309;-92
2022/05/07 09:03:48;;;;;;;9.53;7.33;;;18.60;77.10;;;19.26;45.62;99251.28;4959755;28;115026;-90
2022/05/07 09:06:20;;;;;;;7.33;6.00;;;18.60;76.20;;;19.27;45.75;99258.53;4953625;28;124113;-92
2022/05/07 09:08:48;;;;;;;6.97;6.27;;;18.70;76.40;;;19.35;45.90;99254.75;4961510;28;123956;-94
2022/05/07 09:11:19;;;;;;;9.03;7.30;;;18.70;76.30;;;19.41;45.45;99256.09;4949089;28;113385;-94
2022/05/07 09:13:46;;;;;;;7.57;6.87;;;18.80;75.90;;;19.44;45.22;99248.97;4955026;28;114622;-96
2022/05/07 09:16:14;;;;;;;9.93;7.73;;;18.90;75.60;;;19.48;44.79;99249.03;4957665;28;124147;-92
2022/05/07 09:18:48;;;;;;;10.60;7.53;;;18.90;75.00;;;19.51;44.85;99251.97;4952887;28;123093;-94
2022/05/07 09:21:23;;;;;;;10.73;7.80;;;18.90;74.60;;;19.53;44.26;99240.38;4966065;28;114832;-92
2022/05/07 09:24:05;;;;;;;8.70;7.07;;;19.00;73.70;;;19.54;43.85;99244.81;4967721;28;114350;-94
2022/05/07 09:26:39;;;;;;;10.20;5.80;;;19.00;73.20;;;19.54;43.56;99253.22;4967855;28;123728;-92
2022/05/07 09:29:12;;;;;;;6.43;5.03;;;19.00;72.60;;;19.59;43.68;99244.56;4952573;28;122787;-93
2022/05/07 09:31:42;;;;;;;13.57;5.50;;;18.30;72.10;;;19.61;43.50;99242.19;4982693;28;114852;-94
2022/05/07 09:37:18;;;;;;;9.70;5.10;;;19.10;72.00;;;19.69;42.58;99238.41;4981199;28;124959;-94
2022/05/07 09:39:52;;;;;;;4.73;3.97;;;19.20;71.50;;;19.77;43.09;99233.78;4968197;28;124020;-92
2022/05/07 09:42:24;;;;;;;8.10;4.00;;;19.20;71.50;;;19.85;41.81;99236.44;4987130;28;113363;-93
2022/05/07 09:44:50;;;;;;;9.13;3.57;;;19.30;70.10;;;19.88;41.16;99234.03;4987605;28;113971;-93
2022/05/07 09:47:17;;;;;;;4.73;3.53;;;19.30;69.20;;;19.92;41.09;99227.34;4982982;28;124012;-93
2022/05/07 09:52:32;;;;;;;5.77;3.90;;;19.40;68.20;;;20.01;40.81;99221.53;4972459;28;116313;-94
2022/05/07 09:57:48;;;;;;;5.60;3.30;;;19.60;68.40;;;20.11;39.40;99220.97;4965045;28;124768;-93
2022/05/07 10:00:19;;;;;;;3.90;2.87;;;19.60;66.20;;;20.15;39.24;99221.03;4971940;28;123934;-94
2022/05/07 10:03:28;;;;;;;3.43;3.10;;;19.60;65.30;;;20.19;39.30;99211.53;4982882;28;114189;-92
2022/05/07 10:06:07;;;;;;;5.30;3.03;;;19.70;65.60;;;20.27;39.17;99218.94;4918125;28;113092;-91
2022/05/07 10:08:46;;;;;;;3.63;2.70;;;19.70;65.30;;;20.36;38.89;99220.72;4965163;28;123359;-92
2022/05/07 10:11:16;;;;;;;5.93;3.10;;;19.80;65.20;;;20.40;37.61;99216.00;4957861;28;123944;-93
2022/05/07 10:13:56;;;;;;;4.03;2.50;;;19.90;63.30;;;20.44;38.12;99211.25;4974593;28;113640;-91
2022/05/07 10:16:28;;;;;;;4.37;3.10;;;19.90;63.40;;;20.49;37.58;99208.16;4974280;28;113451;-90
2022/05/07 10:19:10;;;;;;;3.63;2.60;;;20.00;62.80;;;20.52;36.88;99207.41;5000840;28;122404;-91
2022/05/07 10:21:59;;;;;;;1.70;1.60;;;20.00;61.50;;;20.56;37.20;99208.34;4992566;28;124530;-90
2022/05/07 10:24:26;;;;;;;2.13;1.90;;;20.10;61.20;;;20.61;36.71;99199.63;4994785;28;113661;-90
2022/05/07 10:26:53;;;;;;;1.73;1.63;;;20.10;60.50;;;20.66;36.68;99201.31;5025586;28;114735;-92
2022/05/07 10:29:21;;;;;;;3.20;1.90;;;20.10;60.50;;;20.70;35.71;99197.41;4991081;28;124257;-91
2022/05/07 10:31:50;;;;;;;4.13;2.30;;;20.20;59.20;;;20.76;34.39;99203.53;5008383;28;123437;-91
2022/05/07 10:34:27;;;;;;;3.30;2.20;;;20.20;56.60;;;20.77;34.07;99199.56;4974484;28;113715;-91
2022/05/07 10:37:05;;;;;;;3.63;1.90;;;20.30;56.30;;;20.81;34.02;99192.00;4971259;28;112779;-91
2022/05/07 10:39:36;;;;;;;2.30;1.80;;;20.30;56.30;;;20.84;33.89;99193.25;4953238;28;124288;-91
2022/05/07 10:42:15;;;;;;;3.83;2.80;;;20.30;55.70;;;20.90;34.60;99186.97;4989534;28;123898;-91
2022/05/07 10:44:42;;;;;;;5.40;2.33;;;20.40;56.70;;;21.00;34.72;99185.53;4971859;28;115416;-92
2022/05/07 10:47:16;;;;;;;3.10;2.30;;;20.50;57.20;;;21.08;34.78;99183.66;5001572;28;114758;-91
2022/05/07 10:50:13;;;;;;;5.10;3.07;;;20.50;57.00;;;21.10;34.78;99173.69;5004057;28;124266;-91
2022/05/07 10:52:41;;;;;;;4.03;3.03;;;20.60;57.10;;;21.14;34.81;99176.53;4968102;28;123814;-92
2022/05/07 10:55:08;;;;;;;3.67;2.40;;;20.60;57.10;;;21.16;35.07;99175.00;4958118;28;113380;-94
2022/05/07 10:57:48;;;;;;;4.10;2.33;;;20.70;57.00;;;21.18;35.10;99181.06;4972850;28;114061;-93
2022/05/07 11:00:20;;;;;;;6.07;2.50;;;20.70;57.20;;;21.21;34.50;99173.06;4957830;28;124653;-92
2022/05/07 11:02:50;;;;;;;2.83;2.53;;;20.70;56.40;;;21.24;35.10;99167.50;4982998;28;122347;-90